createdAt,value
2023-03-26T00:01:13.903Z,4.23
2023-03-26T00:03:41.922Z,4.00
2023-03-26T00:06:12.687Z,3.90
2023-03-26T00:08:41.023Z,3.90
2023-03-26T00:11:09.958Z,3.07
2023-03-26T00:13:36.599Z,2.23
2023-03-26T00:16:04.108Z,2.97
2023-03-26T00:18:31.464Z,3.33
2023-03-26T00:20:58.899Z,3.47
2023-03-26T00:23:26.997Z,3.53
2023-03-26T00:25:54.637Z,3.33
2023-03-26T00:28:22.591Z,2.10
2023-03-26T00:30:50.746Z,3.60
2023-03-26T00:33:17.490Z,3.77
2023-03-26T00:35:47.141Z,2.83
2023-03-26T00:38:14.718Z,3.20
2023-03-26T00:40:47.862Z,3.70
2023-03-26T00:43:20.813Z,3.27
2023-03-26T00:45:55.179Z,1.87
2023-03-26T00:48:31.607Z,3.43
2023-03-26T00:51:06.269Z,3.90
2023-03-26T00:53:33.369Z,3.10
2023-03-26T00:56:00.432Z,2.83
2023-03-26T00:58:27.928Z,3.33
2023-03-26T01:00:57.725Z,3.00
2023-03-26T01:03:33.598Z,3.43
2023-03-26T01:06:08.561Z,3.37
2023-03-26T01:08:39.927Z,3.63
2023-03-26T01:11:13.838Z,3.17
2023-03-26T01:14:09.073Z,2.10
2023-03-26T01:16:51.947Z,3.70
2023-03-26T01:19:44.635Z,3.00
2023-03-26T01:22:17.422Z,2.30
2023-03-26T01:24:46.118Z,1.90
2023-03-26T01:27:35.961Z,2.47
2023-03-26T01:30:16.961Z,2.70
2023-03-26T01:33:01.511Z,1.70
2023-03-26T01:35:46.956Z,1.60
2023-03-26T01:38:23.420Z,2.10
2023-03-26T01:41:21.269Z,2.20
2023-03-26T01:44:00.222Z,1.83
2023-03-26T01:46:28.949Z,2.40
2023-03-26T01:48:55.813Z,2.30
2023-03-26T01:51:28.913Z,2.27
2023-03-26T01:53:56.892Z,1.80
2023-03-26T01:56:48.290Z,3.90
2023-03-26T02:00:04.473Z,3.07
2023-03-26T02:03:17.769Z,3.00
2023-03-26T02:05:58.419Z,2.83
2023-03-26T02:08:35.486Z,2.53
2023-03-26T02:11:05.812Z,2.53
2023-03-26T02:13:33.118Z,3.23
2023-03-26T02:16:01.751Z,3.50
2023-03-26T02:18:41.476Z,2.50
2023-03-26T02:21:13.711Z,1.93
2023-03-26T02:23:46.620Z,2.77
2023-03-26T02:26:16.404Z,1.87
2023-03-26T02:28:55.636Z,3.23
2023-03-26T02:31:26.096Z,2.70
2023-03-26T02:33:55.365Z,3.17
2023-03-26T02:36:27.302Z,3.50
2023-03-26T02:39:00.243Z,3.33
2023-03-26T02:41:29.100Z,2.67
2023-03-26T02:44:05.681Z,3.10
2023-03-26T02:46:54.906Z,2.77
2023-03-26T02:49:50.877Z,3.27
2023-03-26T02:52:31.116Z,2.67
2023-03-26T02:54:59.418Z,2.30
2023-03-26T02:57:26.475Z,2.10
2023-03-26T03:00:16.536Z,2.67
2023-03-26T03:02:47.970Z,2.40
2023-03-26T03:05:43.120Z,2.00
2023-03-26T03:08:28.050Z,2.00
2023-03-26T03:11:24.906Z,1.73
2023-03-26T03:13:52.892Z,2.13
2023-03-26T03:16:23.093Z,1.93
2023-03-26T03:18:54.331Z,2.30
2023-03-26T03:21:28.247Z,2.67
2023-03-26T03:23:56.078Z,2.10
2023-03-26T03:26:29.513Z,2.13
2023-03-26T03:28:58.503Z,2.03
2023-03-26T03:31:26.301Z,1.97
2023-03-26T03:33:57.347Z,2.00
2023-03-26T03:36:27.812Z,2.40
2023-03-26T03:39:02.632Z,1.80
2023-03-26T03:41:30.253Z,2.57
2023-03-26T03:43:59.670Z,2.60
2023-03-26T03:46:29.629Z,2.43
2023-03-26T03:48:56.609Z,2.60
2023-03-26T03:51:28.568Z,2.13
2023-03-26T03:54:04.083Z,2.30
2023-03-26T03:56:54.086Z,2.20
2023-03-26T03:59:38.400Z,2.47
2023-03-26T04:02:21.189Z,2.50
2023-03-26T04:04:57.403Z,1.73
2023-03-26T04:07:25.596Z,2.87
2023-03-26T04:10:05.860Z,3.00
2023-03-26T04:12:52.490Z,2.70
2023-03-26T04:15:24.273Z,2.93
2023-03-26T04:17:52.000Z,3.30
2023-03-26T04:20:19.779Z,3.30
2023-03-26T04:22:48.604Z,2.47
2023-03-26T04:25:17.312Z,2.23
2023-03-26T04:27:48.172Z,3.30
2023-03-26T04:30:44.931Z,3.47
2023-03-26T04:33:34.645Z,3.30
2023-03-26T04:36:03.054Z,2.67
2023-03-26T04:38:41.226Z,3.00
2023-03-26T04:41:13.664Z,2.63
2023-03-26T04:43:50.696Z,2.90
2023-03-26T04:46:23.885Z,2.83
2023-03-26T04:49:04.225Z,3.07
2023-03-26T04:51:38.248Z,2.70
2023-03-26T04:54:14.338Z,2.97
2023-03-26T04:56:59.398Z,2.83
2023-03-26T04:59:46.333Z,2.40
2023-03-26T05:02:15.445Z,2.27
2023-03-26T05:04:49.802Z,2.43
2023-03-26T05:07:20.526Z,2.60
2023-03-26T05:09:50.270Z,1.77
2023-03-26T05:12:22.607Z,2.30
2023-03-26T05:15:11.511Z,1.90
2023-03-26T05:17:57.205Z,2.43
2023-03-26T05:20:41.882Z,3.73
2023-03-26T05:23:10.660Z,2.17
2023-03-26T05:25:42.762Z,2.67
2023-03-26T05:28:16.286Z,2.33
2023-03-26T05:31:03.251Z,2.53
2023-03-26T05:33:35.066Z,2.67
2023-03-26T05:36:09.396Z,2.67
2023-03-26T05:38:37.026Z,2.40
2023-03-26T05:41:07.993Z,2.33
2023-03-26T05:43:37.166Z,3.00
2023-03-26T05:46:11.826Z,2.07
2023-03-26T05:48:39.143Z,1.93
2023-03-26T05:51:06.589Z,2.00
2023-03-26T05:53:33.711Z,2.00
2023-03-26T05:56:32.660Z,2.20
2023-03-26T05:59:23.482Z,1.87
2023-03-26T06:02:10.060Z,2.30
2023-03-26T06:04:42.538Z,2.47
2023-03-26T06:07:33.759Z,2.43
2023-03-26T06:10:09.527Z,2.17
2023-03-26T06:12:37.037Z,2.20
2023-03-26T06:15:05.397Z,3.20
2023-03-26T06:17:46.765Z,2.33
2023-03-26T06:20:20.103Z,1.50
2023-03-26T06:22:48.836Z,3.00
2023-03-26T06:25:19.867Z,2.90
2023-03-26T06:28:05.972Z,3.17
2023-03-26T06:31:01.064Z,2.50
2023-03-26T06:33:33.154Z,2.80
2023-03-26T06:36:00.725Z,1.90
2023-03-26T06:38:27.422Z,1.93
2023-03-26T06:40:54.576Z,3.17
2023-03-26T06:43:39.932Z,2.03
2023-03-26T06:46:29.794Z,3.37
2023-03-26T06:49:14.802Z,2.73
2023-03-26T06:51:41.454Z,3.30
2023-03-26T06:54:08.088Z,2.57
2023-03-26T06:56:49.298Z,2.50
2023-03-26T06:59:34.705Z,3.00
2023-03-26T07:02:20.598Z,1.70
2023-03-26T07:05:06.148Z,2.93
2023-03-26T07:07:51.550Z,2.90
2023-03-26T07:10:36.950Z,2.97
2023-03-26T07:13:12.419Z,3.60
2023-03-26T07:15:57.803Z,3.33
2023-03-26T07:18:39.494Z,2.83
2023-03-26T07:21:09.516Z,2.20
2023-03-26T07:23:36.767Z,1.97
2023-03-26T07:26:38.381Z,1.93
2023-03-26T07:29:35.810Z,1.67
2023-03-26T07:32:13.922Z,3.33
2023-03-26T07:35:28.459Z,2.30
2023-03-26T07:38:18.552Z,2.90
2023-03-26T07:41:20.900Z,1.83
2023-03-26T07:44:22.411Z,3.40
2023-03-26T07:47:27.476Z,3.33
2023-03-26T07:50:20.939Z,3.30
2023-03-26T07:53:06.289Z,4.10
2023-03-26T07:56:16.486Z,1.80
2023-03-26T07:58:59.246Z,4.27
2023-03-26T08:02:19.998Z,3.47
2023-03-26T08:05:10.379Z,1.70
2023-03-26T08:08:13.813Z,1.90
2023-03-26T08:11:13.400Z,2.00
2023-03-26T08:14:07.479Z,1.80
2023-03-26T08:16:48.261Z,3.67
2023-03-26T08:19:46.285Z,2.97
2023-03-26T08:22:27.308Z,4.23
2023-03-26T08:25:09.632Z,4.60
2023-03-26T08:27:37.776Z,4.27
2023-03-26T08:30:24.905Z,4.47
2023-03-26T08:33:11.107Z,5.30
2023-03-26T08:35:42.477Z,4.30
2023-03-26T08:38:10.766Z,4.70
2023-03-26T08:41:02.849Z,4.27
2023-03-26T08:43:48.437Z,4.20
2023-03-26T08:46:33.014Z,3.93
2023-03-26T08:49:18.000Z,4.50
2023-03-26T08:52:19.252Z,3.87
2023-03-26T08:55:20.511Z,2.30
2023-03-26T08:58:15.170Z,2.27
2023-03-26T09:00:54.015Z,3.07
2023-03-26T09:03:45.361Z,4.00
2023-03-26T09:06:46.605Z,4.63
2023-03-26T09:09:41.866Z,3.70
2023-03-26T09:12:20.454Z,4.40
2023-03-26T09:15:22.874Z,4.17
2023-03-26T09:18:27.254Z,4.17
2023-03-26T09:21:08.946Z,4.50
2023-03-26T09:24:07.628Z,4.10
2023-03-26T09:26:46.531Z,3.23
2023-03-26T09:29:32.997Z,4.60
2023-03-26T09:32:36.732Z,5.17
2023-03-26T09:35:33.073Z,4.00
2023-03-26T09:38:29.898Z,4.17
2023-03-26T09:41:07.285Z,3.90
2023-03-26T09:44:18.939Z,4.07
2023-03-26T09:47:02.033Z,3.00
2023-03-26T09:49:45.326Z,4.10
2023-03-26T09:52:14.695Z,4.00
2023-03-26T09:55:00.285Z,4.53
2023-03-26T09:58:11.101Z,4.73
2023-03-26T10:00:50.925Z,4.10
2023-03-26T10:03:30.523Z,4.20
2023-03-26T10:06:02.491Z,4.53
2023-03-26T10:08:51.493Z,3.73
2023-03-26T10:11:25.870Z,4.03
2023-03-26T10:14:04.597Z,4.77
2023-03-26T10:16:49.993Z,4.33
2023-03-26T10:19:29.381Z,4.30
2023-03-26T10:22:09.420Z,4.40
2023-03-26T10:25:13.791Z,4.30
2023-03-26T10:28:09.340Z,3.30
2023-03-26T10:30:42.859Z,4.47
2023-03-26T10:33:43.753Z,4.30
2023-03-26T10:36:34.702Z,3.70
2023-03-26T10:39:37.380Z,3.67
2023-03-26T10:42:44.247Z,4.70
2023-03-26T10:45:32.474Z,4.07
2023-03-26T10:48:10.753Z,4.30
2023-03-26T10:50:51.797Z,3.13
2023-03-26T10:53:25.734Z,3.60
2023-03-26T10:55:57.157Z,3.90
2023-03-26T10:58:26.179Z,4.17
2023-03-26T11:01:01.827Z,3.27
2023-03-26T11:03:52.378Z,4.10
2023-03-26T11:06:25.698Z,4.40
2023-03-26T11:09:13.672Z,3.47
2023-03-26T11:12:26.362Z,4.80
2023-03-26T11:15:10.188Z,4.20
2023-03-26T11:17:55.239Z,3.43
2023-03-26T11:20:49.046Z,3.50
2023-03-26T11:23:37.317Z,3.87
2023-03-26T11:26:19.088Z,2.90
2023-03-26T11:29:32.716Z,4.23
2023-03-26T11:32:10.839Z,3.97
2023-03-26T11:34:58.196Z,4.23
2023-03-26T11:37:29.446Z,4.10
2023-03-26T11:39:59.400Z,2.83
2023-03-26T11:42:27.502Z,4.20
2023-03-26T11:45:04.425Z,4.20
2023-03-26T11:47:56.401Z,3.70
2023-03-26T11:50:29.795Z,3.90
2023-03-26T11:53:11.613Z,2.80
2023-03-26T11:55:46.679Z,4.20
2023-03-26T11:58:42.410Z,3.90
2023-03-26T12:01:18.775Z,2.47
2023-03-26T12:03:58.554Z,3.23
2023-03-26T12:06:28.708Z,3.90
2023-03-26T12:08:56.920Z,4.00
2023-03-26T12:11:32.597Z,3.73
2023-03-26T12:14:05.662Z,4.23
2023-03-26T12:16:32.408Z,3.97
2023-03-26T12:19:06.114Z,3.30
2023-03-26T12:21:50.305Z,3.40
2023-03-26T12:24:36.044Z,4.40
2023-03-26T12:27:23.915Z,2.90
2023-03-26T12:29:52.401Z,2.27
2023-03-26T12:32:19.026Z,4.30
2023-03-26T12:34:47.291Z,4.50
2023-03-26T12:37:37.192Z,3.73
2023-03-26T12:40:35.911Z,3.67
2023-03-26T12:44:45.936Z,3.90
2023-03-26T12:46:03.762Z,3.67
2023-03-26T12:48:45.471Z,4.03
2023-03-26T12:51:17.966Z,3.63
2023-03-26T12:54:09.730Z,3.57
2023-03-26T12:57:12.493Z,3.83
2023-03-26T13:00:14.537Z,3.60
2023-03-26T13:02:53.061Z,3.20
2023-03-26T13:05:59.245Z,2.83
2023-03-26T13:09:20.361Z,3.43
2023-03-26T13:12:18.108Z,4.03
2023-03-26T13:15:05.829Z,3.63
2023-03-26T13:17:52.238Z,3.20
2023-03-26T13:20:51.589Z,3.73
2023-03-26T13:23:45.930Z,4.10
2023-03-26T13:26:26.527Z,3.40
2023-03-26T13:29:05.987Z,3.53
2023-03-26T13:32:07.187Z,3.57
2023-03-26T13:35:09.442Z,3.40
2023-03-26T13:37:58.890Z,4.10
2023-03-26T13:41:09.312Z,4.07
2023-03-26T13:44:03.873Z,3.70
2023-03-26T13:46:52.156Z,3.30
2023-03-26T13:49:58.555Z,3.93
2023-03-26T13:52:45.703Z,3.20
2023-03-26T13:55:23.568Z,3.47
2023-03-26T13:58:03.098Z,4.00
2023-03-26T14:00:54.409Z,3.67
2023-03-26T14:03:33.360Z,3.00
2023-03-26T14:06:06.446Z,3.97
2023-03-26T14:08:41.970Z,3.63
2023-03-26T14:11:22.499Z,2.73
2023-03-26T14:14:03.870Z,3.63
2023-03-26T14:16:36.625Z,3.43
2023-03-26T14:19:21.617Z,3.70
2023-03-26T14:22:07.107Z,3.53
2023-03-26T14:25:01.063Z,3.70
2023-03-26T14:27:58.869Z,3.70
2023-03-26T14:30:37.191Z,3.40
2023-03-26T14:33:27.887Z,3.30
2023-03-26T14:36:38.888Z,4.00
2023-03-26T14:39:26.269Z,3.20
2023-03-26T14:42:01.151Z,3.63
2023-03-26T14:44:48.843Z,4.03
2023-03-26T14:47:19.377Z,3.40
2023-03-26T14:50:20.336Z,3.10
2023-03-26T14:52:51.570Z,4.00
2023-03-26T14:55:48.508Z,4.40
2023-03-26T14:58:56.939Z,4.10
2023-03-26T15:01:40.260Z,4.37
2023-03-26T15:04:38.298Z,3.80
2023-03-26T15:07:42.665Z,4.13
2023-03-26T15:10:25.257Z,3.30
2023-03-26T15:13:10.378Z,3.73
2023-03-26T15:16:06.377Z,3.53
2023-03-26T15:18:42.280Z,3.10
2023-03-26T15:21:30.323Z,2.90
2023-03-26T15:24:24.245Z,3.47
2023-03-26T15:27:28.659Z,3.20
2023-03-26T15:30:24.988Z,2.03
2023-03-26T15:33:28.305Z,3.00
2023-03-26T15:36:16.719Z,2.40
2023-03-26T15:39:02.809Z,2.40
2023-03-26T15:41:34.521Z,2.70
2023-03-26T15:44:24.098Z,2.53
2023-03-26T15:47:18.722Z,3.30
2023-03-26T15:50:08.075Z,4.00
2023-03-26T15:52:43.643Z,3.60
2023-03-26T15:55:21.946Z,3.80
2023-03-26T15:58:15.092Z,4.30
2023-03-26T16:00:57.198Z,3.67
2023-03-26T16:03:39.338Z,2.40
2023-03-26T16:06:27.850Z,2.17
2023-03-26T16:09:20.989Z,2.97
2023-03-26T16:12:23.519Z,2.47
2023-03-26T16:15:29.656Z,3.20
2023-03-26T16:18:12.224Z,3.67
2023-03-26T16:20:54.813Z,3.07
2023-03-26T16:23:29.666Z,2.47
2023-03-26T16:26:05.780Z,2.57
2023-03-26T16:28:57.578Z,2.80
2023-03-26T16:31:37.968Z,2.50
2023-03-26T16:34:07.797Z,2.50
2023-03-26T16:36:35.931Z,4.40
2023-03-26T16:39:05.552Z,2.10
2023-03-26T16:41:50.045Z,2.60
2023-03-26T16:44:36.954Z,2.23
2023-03-26T16:47:19.952Z,2.50
2023-03-26T16:50:29.843Z,2.60
2023-03-26T16:53:18.089Z,2.97
2023-03-26T16:56:05.025Z,2.10
2023-03-26T16:58:49.321Z,2.90
2023-03-26T17:01:27.393Z,2.47
2023-03-26T17:04:02.859Z,2.87
2023-03-26T17:06:56.432Z,3.60
2023-03-26T17:09:29.534Z,1.93
2023-03-26T17:12:19.133Z,2.80
2023-03-26T17:15:19.701Z,2.17
2023-03-26T17:18:07.074Z,2.07
2023-03-26T17:20:45.542Z,2.50
2023-03-26T17:23:31.355Z,2.50
2023-03-26T17:26:16.836Z,2.17
2023-03-26T17:28:59.709Z,3.43
2023-03-26T17:31:48.873Z,3.03
2023-03-26T17:34:45.279Z,2.27
2023-03-26T17:37:24.542Z,2.30
2023-03-26T17:39:51.109Z,2.40
2023-03-26T17:42:30.532Z,2.40
2023-03-26T17:44:57.820Z,1.80
2023-03-26T17:47:46.861Z,2.23
2023-03-26T17:50:24.032Z,2.27
2023-03-26T17:53:00.177Z,2.30
2023-03-26T17:55:33.794Z,2.50
2023-03-26T17:58:20.912Z,2.40
2023-03-26T18:00:52.383Z,2.13
2023-03-26T18:03:29.639Z,2.50
2023-03-26T18:06:07.758Z,1.93
2023-03-26T18:08:42.316Z,2.40
2023-03-26T18:11:14.854Z,2.30
2023-03-26T18:14:06.109Z,2.17
2023-03-26T18:16:52.933Z,1.97
2023-03-26T18:19:22.690Z,2.03
2023-03-26T18:21:56.628Z,2.30
2023-03-26T18:24:37.397Z,1.93
2023-03-26T18:27:11.467Z,2.23
2023-03-26T18:29:45.770Z,2.00
2023-03-26T18:32:12.462Z,2.10
2023-03-26T18:34:46.162Z,1.90
2023-03-26T18:37:24.027Z,2.40
2023-03-26T18:39:56.902Z,1.80
2023-03-26T18:42:24.178Z,2.00
2023-03-26T18:44:52.083Z,1.90
2023-03-26T18:47:19.934Z,2.20
2023-03-26T18:49:49.713Z,2.00
2023-03-26T18:52:19.547Z,2.13
2023-03-26T18:54:52.339Z,1.70
2023-03-26T18:57:25.788Z,2.27
2023-03-26T18:59:54.849Z,2.00
2023-03-26T19:02:22.481Z,2.27
2023-03-26T19:04:50.843Z,2.07
2023-03-26T19:07:25.052Z,1.90
2023-03-26T19:09:56.154Z,2.00
2023-03-26T19:12:36.515Z,2.07
2023-03-26T19:15:13.653Z,2.10
2023-03-26T19:17:44.229Z,1.90
2023-03-26T19:20:28.705Z,2.13
2023-03-26T19:22:56.903Z,1.90
2023-03-26T19:25:36.758Z,1.90
2023-03-26T19:28:05.065Z,2.07
2023-03-26T19:30:34.741Z,2.03
2023-03-26T19:33:14.188Z,1.73
2023-03-26T19:35:42.536Z,1.47
2023-03-26T19:38:23.696Z,1.70
2023-03-26T19:40:57.797Z,1.70
2023-03-26T19:43:26.154Z,1.60
2023-03-26T19:46:00.544Z,1.60
2023-03-26T19:48:45.881Z,1.73
2023-03-26T19:51:31.863Z,1.60
2023-03-26T19:54:02.962Z,1.80
2023-03-26T19:56:29.985Z,1.57
2023-03-26T19:58:59.092Z,1.70
2023-03-26T20:01:27.905Z,1.73
2023-03-26T20:03:57.699Z,1.60
2023-03-26T20:06:41.620Z,1.70
2023-03-26T20:09:11.715Z,1.43
2023-03-26T20:11:39.480Z,1.77
2023-03-26T20:14:15.114Z,1.70
2023-03-26T20:16:43.860Z,1.60
2023-03-26T20:19:13.788Z,1.50
2023-03-26T20:21:41.223Z,1.63
2023-03-26T20:24:14.557Z,1.40
2023-03-26T20:26:41.238Z,1.63
2023-03-26T20:29:07.836Z,1.60
2023-03-26T20:31:34.645Z,1.40
2023-03-26T20:34:01.353Z,1.63
2023-03-26T20:36:34.009Z,1.40
2023-03-26T20:39:05.845Z,1.50
2023-03-26T20:41:33.575Z,1.53
2023-03-26T20:44:00.902Z,1.70
2023-03-26T20:46:31.399Z,1.70
2023-03-26T20:48:59.306Z,1.53
2023-03-26T20:51:27.871Z,1.73
2023-03-26T20:53:55.163Z,1.60
2023-03-26T20:56:21.901Z,1.40
2023-03-26T20:59:09.719Z,1.50
2023-03-26T21:01:37.905Z,1.40
2023-03-26T21:04:04.876Z,1.37
2023-03-26T21:06:31.800Z,1.37
2023-03-26T21:08:58.749Z,1.50
2023-03-26T21:11:39.057Z,1.80
2023-03-26T21:14:28.491Z,1.33
2023-03-26T21:16:55.542Z,1.37
2023-03-26T21:19:22.705Z,2.17
2023-03-26T21:22:07.768Z,2.50
2023-03-26T21:25:02.799Z,1.30
2023-03-26T21:27:39.100Z,1.53
2023-03-26T21:30:16.163Z,1.30
2023-03-26T21:32:45.330Z,1.93
2023-03-26T21:35:13.488Z,1.50
2023-03-26T21:37:42.926Z,1.60
2023-03-26T21:40:14.682Z,1.67
2023-03-26T21:42:52.027Z,1.27
2023-03-26T21:45:19.855Z,1.53
2023-03-26T21:47:47.327Z,1.43
2023-03-26T21:50:17.986Z,1.60
2023-03-26T21:52:48.183Z,2.13
2023-03-26T21:55:20.532Z,1.47
2023-03-26T21:58:04.804Z,2.17
2023-03-26T22:00:50.460Z,1.50
2023-03-26T22:03:34.042Z,1.53
2023-03-26T22:06:11.786Z,1.20
2023-03-26T22:08:40.726Z,1.40
2023-03-26T22:11:10.045Z,1.73
2023-03-26T22:13:38.509Z,1.40
2023-03-26T22:16:07.164Z,1.40
2023-03-26T22:18:34.503Z,1.60
2023-03-26T22:21:01.742Z,1.40
2023-03-26T22:23:34.177Z,1.33
2023-03-26T22:26:00.879Z,2.30
2023-03-26T22:28:27.615Z,2.07
2023-03-26T22:30:54.395Z,1.40
2023-03-26T22:33:21.442Z,2.37
2023-03-26T22:35:48.091Z,1.60
2023-03-26T22:38:16.907Z,1.50
2023-03-26T22:40:43.491Z,1.73
2023-03-26T22:43:10.177Z,1.40
2023-03-26T22:45:37.646Z,1.30
2023-03-26T22:48:04.774Z,2.10
2023-03-26T22:50:32.435Z,1.50
2023-03-26T22:52:59.221Z,1.57
2023-03-26T22:55:29.061Z,2.37
2023-03-26T22:57:56.980Z,2.20
2023-03-26T23:00:23.686Z,1.60
2023-03-26T23:02:50.370Z,1.70
2023-03-26T23:05:19.734Z,2.40
2023-03-26T23:07:46.530Z,1.77
2023-03-26T23:10:14.741Z,2.43
2023-03-26T23:12:41.521Z,2.30
2023-03-26T23:15:09.610Z,1.93
2023-03-26T23:17:37.436Z,1.90
2023-03-26T23:20:12.419Z,2.40
2023-03-26T23:22:39.072Z,2.37
2023-03-26T23:25:07.352Z,2.37
2023-03-26T23:27:33.969Z,2.20
2023-03-26T23:30:01.311Z,1.60
2023-03-26T23:32:28.173Z,2.33
2023-03-26T23:34:57.973Z,1.40
2023-03-26T23:37:25.064Z,2.60
2023-03-26T23:39:52.237Z,2.00
2023-03-26T23:42:28.598Z,2.17
2023-03-26T23:44:56.759Z,2.20
2023-03-26T23:47:23.653Z,1.53
2023-03-26T23:49:50.517Z,1.33
2023-03-26T23:52:17.124Z,2.20
2023-03-26T23:54:44.661Z,2.13
2023-03-26T23:57:11.636Z,2.60
2023-03-26T23:59:38.501Z,1.97
